Time;durP1;ratioP1;P1;durP2;ratioP2;P2;SDS_P1;SDS_P2;PMS_P1;PMS_P2;Temp;Humidity;BMP_temperature;BMP_pressure;BME280_temperature;BME280_humidity;BME280_pressure;Samples;Min_cycle;Max_cycle;Signal;HPM_P1;HPM_P2
2023/05/30 00:00:13;;;;;;;9.27;1.58;;;11.80;65.30;;;;;;4886915;28;87003;-79
2023/05/30 00:02:43;;;;;;;9.60;1.88;;;11.70;65.20;;;;;;4886179;28;89601;-79
2023/05/30 00:05:09;;;;;;;11.15;1.98;;;11.70;65.80;;;;;;4886283;28;88278;-78
2023/05/30 00:07:35;;;;;;;9.75;1.75;;;11.60;66.30;;;;;;4885354;28;88663;-78
2023/05/30 00:10:01;;;;;;;13.07;1.85;;;11.60;66.10;;;;;;4886359;28;88197;-78
2023/05/30 00:12:27;;;;;;;10.63;2.25;;;11.60;66.90;;;;;;4886542;28;88439;-78
2023/05/30 00:14:55;;;;;;;6.65;2.08;;;11.50;67.00;;;;;;4887408;28;88396;-78
2023/05/30 00:17:21;;;;;;;8.18;1.67;;;11.50;67.30;;;;;;4900674;28;87846;-78
2023/05/30 00:19:47;;;;;;;12.25;2.63;;;11.50;67.30;;;;;;4885364;28;87271;-78
2023/05/30 00:22:13;;;;;;;9.50;1.98;;;11.40;67.40;;;;;;4885378;28;87928;-78
2023/05/30 00:24:39;;;;;;;10.75;2.10;;;11.40;68.30;;;;;;4886946;28;86984;-79
2023/05/30 00:27:05;;;;;;;12.07;3.25;;;11.30;68.40;;;;;;4886034;28;87844;-78
2023/05/30 00:29:31;;;;;;;10.48;1.77;;;11.30;68.80;;;;;;4883736;28;89134;-78
2023/05/30 00:31:56;;;;;;;13.55;1.88;;;11.30;68.90;;;;;;4885418;28;89134;-78
2023/05/30 00:34:22;;;;;;;8.10;1.58;;;11.20;68.50;;;;;;4885757;28;88362;-78
2023/05/30 00:36:48;;;;;;;9.32;1.88;;;11.20;69.30;;;;;;4885575;28;87031;-79
2023/05/30 00:39:15;;;;;;;12.90;2.03;;;11.10;69.60;;;;;;4887012;28;87836;-78
2023/05/30 00:41:40;;;;;;;10.05;2.00;;;11.10;69.90;;;;;;4885362;28;88297;-78
2023/05/30 00:44:06;;;;;;;9.57;2.13;;;11.10;70.20;;;;;;4884387;28;88834;-78
2023/05/30 00:46:32;;;;;;;17.13;2.20;;;11.10;70.80;;;;;;4884106;28;87634;-78
2023/05/30 00:48:59;;;;;;;11.27;2.00;;;11.00;71.30;;;;;;4882525;28;87557;-78
2023/05/30 00:51:28;;;;;;;17.05;2.17;;;11.00;71.20;;;;;;4884290;28;87986;-78
2023/05/30 00:53:55;;;;;;;16.10;2.53;;;10.90;72.10;;;;;;4884281;28;87525;-78
2023/05/30 00:56:23;;;;;;;11.73;1.80;;;10.90;72.10;;;;;;4884073;28;88696;-78
2023/05/30 00:58:52;;;;;;;16.42;3.00;;;10.90;72.20;;;;;;4884439;28;88012;-78
2023/05/30 01:01:19;;;;;;;20.00;3.08;;;10.80;72.70;;;;;;4885044;28;88614;-78
2023/05/30 01:03:50;;;;;;;9.13;1.88;;;10.80;73.00;;;;;;4883768;28;88098;-78
2023/05/30 01:06:17;;;;;;;15.32;2.42;;;10.80;73.80;;;;;;4884878;28;87435;-78
2023/05/30 01:08:43;;;;;;;19.42;2.38;;;10.70;73.70;;;;;;4883128;28;87964;-78
2023/05/30 01:11:42;;;;;;;18.60;2.20;;;10.70;74.00;;;;;;4883470;28;87633;-78
2023/05/30 01:14:50;;;;;;;10.02;1.83;;;10.60;74.30;;;;;;4884834;28;87177;-78
2023/05/30 01:17:31;;;;;;;13.02;2.30;;;10.60;75.00;;;;;;4883634;28;87749;-77
2023/05/30 01:20:12;;;;;;;30.92;2.85;;;10.60;75.00;;;;;;4884151;28;87563;-77
2023/05/30 01:23:00;;;;;;;17.50;3.28;;;10.50;75.60;;;;;;4883110;28;89114;-78
2023/05/30 01:25:35;;;;;;;15.05;2.05;;;10.50;75.90;;;;;;4883325;28;95364;-78
2023/05/30 01:28:21;;;;;;;14.85;2.35;;;10.40;76.00;;;;;;4883277;28;87062;-78
2023/05/30 01:30:49;;;;;;;11.93;2.08;;;10.40;76.50;;;;;;4883375;28;87698;-78
2023/05/30 01:33:17;;;;;;;14.85;2.25;;;10.30;76.80;;;;;;4883311;28;88284;-78
2023/05/30 01:35:47;;;;;;;12.23;2.47;;;10.30;76.70;;;;;;4882930;28;88985;-77
2023/05/30 01:38:13;;;;;;;17.67;2.22;;;10.30;77.70;;;;;;4882890;28;87639;-77
2023/05/30 01:40:40;;;;;;;16.52;2.20;;;10.30;78.10;;;;;;4884361;28;86427;-78
2023/05/30 01:43:24;;;;;;;17.05;2.70;;;10.20;78.40;;;;;;4884459;28;88241;-78
2023/05/30 01:45:55;;;;;;;14.70;2.05;;;10.20;78.80;;;;;;4882986;28;89074;-78
2023/05/30 01:48:33;;;;;;;13.35;2.47;;;10.20;78.80;;;;;;4883960;28;88041;-78
2023/05/30 01:51:01;;;;;;;12.23;2.30;;;10.10;79.80;;;;;;4883649;28;87477;-78
2023/05/30 01:53:34;;;;;;;13.98;2.20;;;10.10;79.70;;;;;;4883883;28;88469;-78
2023/05/30 01:56:00;;;;;;;20.33;2.83;;;10.00;80.30;;;;;;4882915;28;88081;-78
2023/05/30 01:58:28;;;;;;;12.77;2.25;;;10.00;80.80;;;;;;4883302;28;87903;-78
2023/05/30 02:00:54;;;;;;;17.38;2.97;;;10.00;80.90;;;;;;4883067;28;88230;-77
2023/05/30 02:03:23;;;;;;;11.65;1.90;;;10.00;81.10;;;;;;4884798;28;88562;-78
2023/05/30 02:05:49;;;;;;;15.82;3.00;;;10.00;81.70;;;;;;4882362;28;88042;-78
2023/05/30 02:08:14;;;;;;;13.65;2.65;;;10.00;82.60;;;;;;4883587;28;87540;-78
2023/05/30 02:10:40;;;;;;;14.48;2.85;;;9.90;82.40;;;;;;4883365;28;87996;-78
2023/05/30 02:13:06;;;;;;;24.70;2.60;;;9.90;82.80;;;;;;4882562;28;96715;-78
2023/05/30 02:15:32;;;;;;;15.38;2.60;;;9.90;83.50;;;;;;4883699;28;89160;-78
2023/05/30 02:17:59;;;;;;;13.25;2.13;;;9.90;83.60;;;;;;4883818;28;87777;-78
2023/05/30 02:20:25;;;;;;;11.80;2.05;;;9.90;84.20;;;;;;4883386;28;87580;-78
2023/05/30 02:22:51;;;;;;;17.27;3.05;;;9.90;84.30;;;;;;4882015;28;88141;-78
2023/05/30 02:25:17;;;;;;;15.73;2.50;;;9.90;84.90;;;;;;4882957;28;87624;-78
2023/05/30 02:27:43;;;;;;;12.27;2.25;;;9.80;84.90;;;;;;4882795;28;87716;-77
2023/05/30 02:30:09;;;;;;;15.52;2.75;;;9.80;85.40;;;;;;4884345;28;86524;-81
2023/05/30 02:32:35;;;;;;;20.77;3.22;;;9.80;85.80;;;;;;4882731;28;89099;-78
2023/05/30 02:35:00;;;;;;;14.02;2.15;;;9.80;85.90;;;;;;4883011;28;88498;-77
2023/05/30 02:37:27;;;;;;;20.65;3.25;;;9.80;86.20;;;;;;4883236;28;88563;-78
2023/05/30 02:39:53;;;;;;;20.85;3.38;;;9.80;86.40;;;;;;4883716;28;87596;-77
2023/05/30 02:42:19;;;;;;;18.85;3.38;;;9.70;87.20;;;;;;4883613;28;87443;-78
2023/05/30 02:44:44;;;;;;;22.20;3.65;;;9.70;87.00;;;;;;4882411;28;87788;-78
2023/05/30 02:47:10;;;;;;;16.90;3.05;;;9.70;87.10;;;;;;4882993;28;87532;-78
2023/05/30 02:49:35;;;;;;;12.55;2.30;;;9.60;87.70;;;;;;4883874;28;87891;-77
2023/05/30 02:52:01;;;;;;;23.08;3.40;;;9.60;87.40;;;;;;4885980;28;94359;-77
2023/05/30 02:54:27;;;;;;;14.98;2.88;;;9.60;88.10;;;;;;4884776;28;87864;-78
2023/05/30 02:56:52;;;;;;;17.70;3.38;;;9.50;88.50;;;;;;4880128;28;87532;-78
2023/05/30 02:59:18;;;;;;;16.92;3.10;;;9.50;89.00;;;;;;4880091;28;87774;-79
2023/05/30 03:01:44;;;;;;;22.60;3.55;;;9.50;89.60;;;;;;4879680;28;89519;-78
2023/05/30 03:04:10;;;;;;;17.08;3.28;;;9.50;89.70;;;;;;4880799;28;87713;-78
2023/05/30 03:06:37;;;;;;;18.73;2.80;;;9.40;89.80;;;;;;4882502;28;87207;-78
2023/05/30 03:09:03;;;;;;;25.83;4.72;;;9.40;89.90;;;;;;4882469;28;87805;-78
2023/05/30 03:11:29;;;;;;;13.45;3.25;;;9.40;90.30;;;;;;4881198;28;90249;-79
2023/05/30 03:13:55;;;;;;;10.98;2.63;;;9.40;90.10;;;;;;4883422;28;88885;-78
2023/05/30 03:16:20;;;;;;;14.98;2.60;;;9.40;90.40;;;;;;4883920;28;87511;-78
2023/05/30 03:18:46;;;;;;;19.27;3.47;;;9.30;90.10;;;;;;4883691;28;88842;-78
2023/05/30 03:21:12;;;;;;;19.63;3.13;;;9.30;90.50;;;;;;4884791;28;87863;-78
2023/05/30 03:23:37;;;;;;;20.00;3.00;;;9.30;90.40;;;;;;4884413;28;88485;-78
2023/05/30 03:26:03;;;;;;;14.30;3.08;;;9.20;90.60;;;;;;4883337;28;88630;-78
2023/05/30 03:28:29;;;;;;;13.88;2.63;;;9.20;90.60;;;;;;4882941;28;87653;-78
2023/05/30 03:30:57;;;;;;;14.50;3.38;;;9.20;90.50;;;;;;4882939;28;87702;-78
2023/05/30 03:33:23;;;;;;;20.38;3.25;;;9.20;90.50;;;;;;4883581;28;87417;-78
2023/05/30 03:35:49;;;;;;;18.98;3.95;;;9.20;91.00;;;;;;4882785;28;87962;-78
2023/05/30 03:38:15;;;;;;;19.05;3.45;;;9.10;90.80;;;;;;4883220;28;87352;-78
2023/05/30 03:40:40;;;;;;;13.00;2.75;;;9.10;91.00;;;;;;4882672;28;88864;-78
2023/05/30 03:43:06;;;;;;;19.52;3.00;;;9.00;91.20;;;;;;4885034;28;87309;-79
2023/05/30 03:45:32;;;;;;;19.20;3.17;;;9.00;91.40;;;;;;4886220;28;87176;-78
2023/05/30 03:47:58;;;;;;;18.00;3.25;;;9.00;91.30;;;;;;4885840;28;87735;-78
2023/05/30 03:50:23;;;;;;;14.40;3.05;;;9.00;91.50;;;;;;4886834;28;90460;-78
2023/05/30 03:52:49;;;;;;;14.73;3.65;;;9.00;91.30;;;;;;4886325;28;89189;-78
2023/05/30 03:55:15;;;;;;;14.38;2.97;;;9.00;91.50;;;;;;4885406;28;87767;-78
2023/05/30 03:57:40;;;;;;;12.48;2.58;;;9.00;91.50;;;;;;4886352;28;87689;-78
2023/05/30 04:00:07;;;;;;;23.88;3.22;;;9.00;91.90;;;;;;4885425;28;95872;-78
2023/05/30 04:02:32;;;;;;;13.73;2.55;;;9.00;91.90;;;;;;4885404;28;88912;-78
2023/05/30 04:04:58;;;;;;;17.42;3.30;;;9.00;92.00;;;;;;4884363;28;87564;-78
2023/05/30 04:07:27;;;;;;;15.23;3.83;;;9.00;91.90;;;;;;4883962;28;89563;-78
2023/05/30 04:09:53;;;;;;;25.25;4.05;;;9.00;92.00;;;;;;4884963;28;87852;-78
2023/05/30 04:12:18;;;;;;;21.65;3.80;;;9.00;92.10;;;;;;4886834;28;87548;-78
2023/05/30 04:14:44;;;;;;;17.65;3.10;;;9.00;92.10;;;;;;4886494;28;88457;-79
2023/05/30 04:17:10;;;;;;;16.55;3.47;;;9.00;92.00;;;;;;4887030;28;87853;-78
2023/05/30 04:19:36;;;;;;;16.00;3.70;;;9.00;92.30;;;;;;4884740;28;88271;-78
2023/05/30 04:22:01;;;;;;;22.85;3.75;;;9.00;92.20;;;;;;4885445;28;87694;-78
2023/05/30 04:24:29;;;;;;;21.05;3.75;;;9.10;92.10;;;;;;4886758;28;87704;-77
2023/05/30 04:26:55;;;;;;;19.60;3.85;;;9.10;92.00;;;;;;4884533;28;87708;-78
2023/05/30 04:29:22;;;;;;;19.02;3.60;;;9.10;92.30;;;;;;4884599;28;87897;-79
2023/05/30 04:31:48;;;;;;;18.55;4.25;;;9.10;92.20;;;;;;4884712;28;88384;-78
2023/05/30 04:34:15;;;;;;;17.83;3.20;;;9.20;92.20;;;;;;4884995;28;87650;-77
2023/05/30 04:36:41;;;;;;;22.08;5.15;;;9.20;92.10;;;;;;4884185;28;87768;-79
2023/05/30 04:39:07;;;;;;;18.23;3.63;;;9.20;92.10;;;;;;4884064;28;94470;-77
2023/05/30 04:41:33;;;;;;;18.40;3.42;;;9.30;92.20;;;;;;4884315;28;89468;-78
2023/05/30 04:43:59;;;;;;;16.65;4.05;;;9.30;92.30;;;;;;4883895;28;87535;-78
2023/05/30 04:46:27;;;;;;;24.40;4.57;;;9.30;92.40;;;;;;4884713;28;88243;-78
2023/05/30 04:48:55;;;;;;;22.10;4.07;;;9.40;92.20;;;;;;4884616;28;88535;-78
2023/05/30 04:51:24;;;;;;;16.85;3.80;;;9.40;92.10;;;;;;4884508;28;88951;-78
2023/05/30 04:53:51;;;;;;;19.65;4.78;;;9.50;92.10;;;;;;4883475;28;87447;-78
2023/05/30 04:56:17;;;;;;;19.58;4.10;;;9.50;92.00;;;;;;4883999;28;86967;-77
2023/05/30 04:58:48;;;;;;;20.65;4.05;;;9.60;92.00;;;;;;4882828;28;87931;-78
2023/05/30 05:01:14;;;;;;;30.08;4.80;;;9.70;91.90;;;;;;4882678;28;87426;-77
2023/05/30 05:03:40;;;;;;;21.67;4.30;;;9.70;91.90;;;;;;4885621;28;88767;-78
2023/05/30 05:06:07;;;;;;;16.85;4.22;;;9.70;91.60;;;;;;4884713;28;87606;-77
2023/05/30 05:08:35;;;;;;;24.98;4.55;;;9.90;91.70;;;;;;4883800;28;89679;-78
2023/05/30 05:11:03;;;;;;;19.55;4.57;;;10.00;91.40;;;;;;4883785;28;89019;-78
2023/05/30 05:13:28;;;;;;;24.15;4.28;;;10.00;91.50;;;;;;4897818;28;87962;-78
2023/05/30 05:15:55;;;;;;;23.17;5.53;;;10.10;91.40;;;;;;4884558;28;87596;-78
2023/05/30 05:18:20;;;;;;;20.80;5.90;;;10.20;91.10;;;;;;4882457;28;88574;-77
2023/05/30 05:20:46;;;;;;;22.02;5.03;;;10.30;90.90;;;;;;4881311;28;93323;-78
2023/05/30 05:23:12;;;;;;;25.83;4.95;;;10.30;90.70;;;;;;4882108;28;87528;-78
2023/05/30 05:25:37;;;;;;;23.50;5.15;;;10.30;90.80;;;;;;4881642;28;87235;-77
2023/05/30 05:28:03;;;;;;;21.13;4.68;;;10.40;90.40;;;;;;4880973;28;89796;-78
2023/05/30 05:30:28;;;;;;;21.85;4.65;;;10.40;90.60;;;;;;4882191;28;88181;-77
2023/05/30 05:32:54;;;;;;;20.13;4.50;;;10.50;90.80;;;;;;4881853;28;87928;-78
2023/05/30 05:35:20;;;;;;;23.40;4.65;;;10.60;90.50;;;;;;4881409;28;87918;-78
2023/05/30 05:37:46;;;;;;;28.45;5.60;;;10.60;90.60;;;;;;4881042;28;88362;-77
2023/05/30 05:40:13;;;;;;;21.20;5.60;;;10.60;90.10;;;;;;4882108;28;88534;-77
2023/05/30 05:42:38;;;;;;;22.63;5.05;;;10.70;89.70;;;;;;4881391;28;87511;-78
2023/05/30 05:45:04;;;;;;;21.38;5.32;;;10.80;90.00;;;;;;4881019;28;87218;-78
2023/05/30 07:23:11;;;;;;;12.82;5.03;;;15.10;71.70;;;;;;5001403;23;87948;-79
2023/05/30 07:25:36;;;;;;;18.65;5.30;;;15.20;70.00;;;;;;4881534;28;88195;-79
2023/05/30 07:28:02;;;;;;;16.75;5.65;;;15.30;70.50;;;;;;4881822;28;87448;-79
2023/05/30 07:30:27;;;;;;;16.25;5.03;;;15.40;70.10;;;;;;4880533;28;89667;-79
2023/05/30 07:32:53;;;;;;;17.92;6.15;;;15.70;68.70;;;;;;4881143;28;88794;-79
2023/05/30 07:35:19;;;;;;;21.10;6.03;;;15.70;69.00;;;;;;4881224;28;88730;-79
2023/05/30 07:37:44;;;;;;;18.95;5.28;;;15.70;67.90;;;;;;4880866;28;87701;-80
2023/05/30 07:40:10;;;;;;;18.17;4.55;;;15.80;67.50;;;;;;4881055;28;88702;-80
2023/05/30 07:42:39;;;;;;;18.75;4.97;;;15.80;67.40;;;;;;4882003;28;88831;-79
2023/05/30 07:45:05;;;;;;;17.35;5.03;;;15.90;67.80;;;;;;4879323;28;88060;-79
2023/05/30 07:47:31;;;;;;;20.02;5.38;;;16.00;67.20;;;;;;4880377;28;87876;-80
2023/05/30 07:49:56;;;;;;;18.58;5.35;;;16.20;66.00;;;;;;4881279;28;88389;-79
2023/05/30 07:52:22;;;;;;;13.32;4.63;;;16.30;65.00;;;;;;4880792;28;87623;-79
2023/05/30 07:54:48;;;;;;;19.45;5.20;;;16.30;66.30;;;;;;4881470;28;87119;-79
2023/05/30 07:57:14;;;;;;;19.75;4.63;;;16.40;64.30;;;;;;4882051;28;87501;-80
2023/05/30 09:28:36;;;;;;;13.63;5.50;;;20.00;54.40;;;;;;5373459;23;89559;-81
2023/05/30 09:31:24;;;;;;;14.27;5.78;;;20.00;53.90;;;;;;4921713;28;86729;-81
2023/05/30 09:34:18;;;;;;;10.80;5.05;;;19.90;55.30;;;;;;4905323;28;87057;-81
2023/05/30 10:02:54;;;;;;;13.95;5.68;;;21.60;50.70;;;;;;4898644;28;87448;-80
2023/05/30 10:05:44;;;;;;;12.82;5.25;;;21.60;51.90;;;;;;4891622;28;86898;-80
2023/05/30 10:08:52;;;;;;;11.45;4.35;;;21.70;51.50;;;;;;4882852;28;87113;-80
2023/05/30 10:11:21;;;;;;;9.82;4.20;;;22.10;49.60;;;;;;4883898;28;87093;-80
2023/05/30 10:13:48;;;;;;;11.40;5.13;;;22.50;49.40;;;;;;4882509;29;88007;-80
2023/05/30 10:16:21;;;;;;;12.18;4.90;;;22.50;47.90;;;;;;4878559;28;86887;-81
2023/05/30 10:18:59;;;;;;;14.82;4.65;;;22.30;48.50;;;;;;4875049;28;88154;-80
2023/05/30 10:21:37;;;;;;;10.40;4.95;;;22.50;47.80;;;;;;4887414;28;88454;-79
2023/05/30 10:24:08;;;;;;;11.82;4.93;;;22.60;49.50;;;;;;4919933;23;88072;-86
2023/05/30 10:26:38;;;;;;;13.25;4.85;;;22.90;49.00;;;;;;4879321;28;87617;-86
2023/05/30 10:29:07;;;;;;;11.02;4.78;;;23.10;48.70;;;;;;4877554;28;90389;-86
2023/05/30 10:31:34;;;;;;;12.27;5.55;;;23.40;47.40;;;;;;4877946;28;91601;-88
2023/05/30 10:34:04;;;;;;;10.48;5.00;;;23.50;46.60;;;;;;4878861;28;87777;-83
2023/05/30 10:36:32;;;;;;;12.73;5.00;;;23.40;46.00;;;;;;4880312;28;88188;-90
2023/05/30 10:39:31;;;;;;;9.20;4.35;;;23.60;46.50;;;;;;4877328;28;91118;-89
2023/05/30 10:42:00;;;;;;;11.23;4.03;;;23.80;46.90;;;;;;4853557;28;91138;-85
2023/05/30 10:44:54;;;;;;;8.02;4.30;;;24.00;45.90;;;;;;4894114;28;87768;-92
2023/05/30 10:47:45;;;;;;;12.65;5.45;;;24.30;44.80;;;;;;4878545;28;90291;-93
2023/05/30 10:50:19;;;;;;;13.50;5.20;;;24.50;45.90;;;;;;4893673;28;91072;-92
2023/05/30 10:52:47;;;;;;;16.33;5.85;;;24.60;45.30;;;;;;4881375;28;87737;-90
2023/05/30 10:55:14;;;;;;;13.18;4.78;;;24.80;45.20;;;;;;4882424;28;87829;-89
2023/05/30 10:57:41;;;;;;;12.35;5.60;;;24.90;43.70;;;;;;4883468;28;90027;-90
2023/05/30 11:00:20;;;;;;;9.73;5.03;;;24.80;42.00;;;;;;4882372;28;95976;-93
2023/05/30 11:02:53;;;;;;;8.93;4.45;;;25.10;44.90;;;;;;4879301;28;91231;-90
2023/05/30 11:05:25;;;;;;;11.68;4.70;;;25.10;44.10;;;;;;4878654;28;88743;-88
2023/05/30 11:07:51;;;;;;;11.43;5.25;;;25.30;44.70;;;;;;4880868;28;87373;-91
2023/05/30 11:10:28;;;;;;;11.95;5.30;;;25.70;42.10;;;;;;4897150;28;90256;-92
2023/05/30 11:13:10;;;;;;;13.32;5.70;;;25.70;42.20;;;;;;4879512;28;91633;-91
2023/05/30 11:15:42;;;;;;;15.68;6.22;;;25.60;42.60;;;;;;4897670;28;87525;-89
2023/05/30 11:18:18;;;;;;;12.05;5.63;;;25.30;42.70;;;;;;4881902;28;94746;-91
2023/05/30 11:20:56;;;;;;;10.10;5.22;;;25.10;41.80;;;;;;4881288;28;92318;-91
2023/05/30 11:23:23;;;;;;;11.88;5.13;;;25.00;43.80;;;;;;4881547;28;90183;-91
2023/05/30 11:25:52;;;;;;;14.43;5.47;;;25.30;45.70;;;;;;4882333;28;87163;-93
2023/05/30 11:28:33;;;;;;;9.05;5.00;;;25.60;43.40;;;;;;4881798;28;90499;-93
2023/05/30 11:30:59;;;;;;;13.35;5.57;;;25.50;42.80;;;;;;4896565;28;91404;-91
2023/05/30 11:33:25;;;;;;;11.50;4.63;;;25.20;41.10;;;;;;4883104;28;92185;-92
2023/05/30 11:35:51;;;;;;;11.20;4.88;;;25.10;43.80;;;;;;4880869;28;87616;-92
2023/05/30 11:38:22;;;;;;;10.95;5.20;;;25.50;42.80;;;;;;4881510;28;89058;-93
2023/05/30 11:40:50;;;;;;;12.95;5.45;;;26.00;43.30;;;;;;4881143;28;90393;-92
2023/05/30 11:43:17;;;;;;;8.88;4.82;;;26.10;40.70;;;;;;4881272;28;91292;-89
2023/05/30 11:45:50;;;;;;;10.93;5.47;;;26.40;41.70;;;;;;4881919;28;87474;-89
2023/05/30 11:48:17;;;;;;;12.55;5.45;;;26.30;40.80;;;;;;4882491;28;90460;-91
2023/05/30 11:50:43;;;;;;;15.00;5.38;;;26.30;41.50;;;;;;4881103;28;91091;-88
2023/05/30 11:53:14;;;;;;;7.53;3.95;;;26.60;42.30;;;;;;4881277;28;90022;-90
2023/05/30 11:55:47;;;;;;;13.32;6.20;;;26.50;40.10;;;;;;4881798;28;88299;-89
2023/05/30 11:58:19;;;;;;;9.57;4.90;;;26.00;39.80;;;;;;4880821;28;89726;-90
2023/05/30 12:00:46;;;;;;;15.25;5.50;;;26.20;42.50;;;;;;4881028;28;90637;-90
2023/05/30 12:03:16;;;;;;;10.98;4.65;;;26.70;41.60;;;;;;4881856;28;90668;-90
2023/05/30 12:05:43;;;;;;;15.70;5.53;;;26.90;40.30;;;;;;4881280;28;87552;-90
2023/05/30 12:08:08;;;;;;;11.02;4.72;;;26.60;40.30;;;;;;4881339;28;89525;-86
2023/05/30 12:10:34;;;;;;;8.82;5.00;;;26.80;42.00;;;;;;4881103;28;90322;-91
2023/05/30 12:13:00;;;;;;;14.68;4.85;;;27.20;42.20;;;;;;4881625;28;90151;-91
2023/05/30 12:15:26;;;;;;;12.48;5.10;;;27.80;40.40;;;;;;4897872;28;87162;-89
2023/05/30 12:17:52;;;;;;;9.13;4.10;;;28.10;38.70;;;;;;4880791;28;90049;-89
2023/05/30 12:20:20;;;;;;;8.63;4.15;;;28.20;39.30;;;;;;4879473;28;91547;-87
2023/05/30 12:22:47;;;;;;;7.15;4.35;;;28.30;38.00;;;;;;4880502;28;91836;-88
2023/05/30 12:25:13;;;;;;;8.75;4.57;;;28.20;37.50;;;;;;4880733;28;87577;-89
2023/05/30 12:27:49;;;;;;;8.73;4.00;;;28.20;38.70;;;;;;4881304;28;89174;-90
2023/05/30 12:30:19;;;;;;;9.25;4.38;;;28.40;37.00;;;;;;4881063;28;95604;-91
2023/05/30 12:32:45;;;;;;;12.73;4.88;;;28.50;36.90;;;;;;4892937;28;92335;-76
2023/05/30 12:35:12;;;;;;;9.60;3.65;;;28.90;37.40;;;;;;4880796;28;88005;-80
2023/05/30 12:37:38;;;;;;;15.18;5.35;;;29.10;35.90;;;;;;4894657;28;89015;-76
2023/05/30 12:40:05;;;;;;;10.13;4.07;;;29.00;34.30;;;;;;4879996;28;89041;-74
2023/05/30 12:42:32;;;;;;;13.68;4.68;;;28.80;35.90;;;;;;4880861;28;88930;-77
2023/05/30 12:45:00;;;;;;;8.65;3.92;;;28.50;35.60;;;;;;4879820;28;88664;-78
2023/05/30 12:47:26;;;;;;;15.80;4.30;;;28.80;37.90;;;;;;4893314;28;91141;-76
2023/05/30 12:49:53;;;;;;;7.95;3.47;;;28.70;33.30;;;;;;4880536;28;88350;-76
2023/05/30 12:52:21;;;;;;;7.72;3.83;;;28.40;36.50;;;;;;4894407;28;90782;-76
2023/05/30 12:54:47;;;;;;;9.35;3.92;;;28.40;36.90;;;;;;4879768;28;87851;-76
2023/05/30 12:57:13;;;;;;;8.40;3.97;;;28.50;37.60;;;;;;4881094;28;87780;-76
2023/05/30 12:59:39;;;;;;;12.10;4.30;;;28.50;35.60;;;;;;4879856;28;88321;-76
2023/05/30 13:02:07;;;;;;;8.68;4.53;;;28.50;33.10;;;;;;4880041;28;88052;-76
2023/05/30 13:04:32;;;;;;;8.43;4.07;;;28.40;34.10;;;;;;4880111;28;87745;-77
2023/05/30 13:06:58;;;;;;;9.98;4.00;;;28.80;34.90;;;;;;4878996;28;87527;-77
2023/05/30 13:09:24;;;;;;;13.75;4.68;;;29.30;36.60;;;;;;4878706;28;91345;-76
2023/05/30 13:11:50;;;;;;;10.73;4.63;;;29.40;34.80;;;;;;4876794;28;90901;-76
2023/05/30 13:14:16;;;;;;;8.98;4.10;;;29.30;35.90;;;;;;4875579;28;87745;-75
2023/05/30 13:16:43;;;;;;;8.75;4.35;;;29.40;36.40;;;;;;4878160;28;94928;-77
2023/05/30 13:19:09;;;;;;;8.25;3.80;;;29.30;33.90;;;;;;4877883;28;91947;-81
2023/05/30 13:21:39;;;;;;;12.35;3.78;;;29.30;34.00;;;;;;4879092;28;91694;-79
2023/05/30 13:24:05;;;;;;;6.55;3.75;;;29.80;35.60;;;;;;4879064;28;87851;-79
2023/05/30 13:26:31;;;;;;;9.88;3.92;;;30.40;35.60;;;;;;4879152;28;89821;-77
2023/05/30 13:28:57;;;;;;;8.98;3.92;;;30.50;33.60;;;;;;4877623;28;91348;-77
2023/05/30 13:31:23;;;;;;;8.90;4.20;;;30.90;36.00;;;;;;4876419;28;92084;-77
2023/05/30 13:33:48;;;;;;;11.63;4.22;;;31.10;34.10;;;;;;4879574;28;88923;-79
2023/05/30 13:36:14;;;;;;;9.60;4.03;;;31.20;34.60;;;;;;4880284;28;87773;-78
2023/05/30 13:38:42;;;;;;;10.07;4.30;;;31.30;35.40;;;;;;4877933;28;88292;-78
2023/05/30 13:41:09;;;;;;;9.88;3.50;;;31.90;34.70;;;;;;4876671;28;88524;-78
2023/05/30 13:43:35;;;;;;;8.13;3.55;;;32.20;33.50;;;;;;4879234;28;87950;-78
2023/05/30 13:46:01;;;;;;;8.32;3.58;;;31.80;32.80;;;;;;4878697;28;87893;-77
2023/05/30 13:48:27;;;;;;;11.02;4.00;;;31.70;35.20;;;;;;4879508;28;88743;-77
2023/05/30 13:50:53;;;;;;;7.20;3.80;;;31.50;33.20;;;;;;4878185;28;90626;-78
2023/05/30 13:53:19;;;;;;;9.25;4.40;;;31.90;33.50;;;;;;4879685;28;87554;-78
2023/05/30 13:55:45;;;;;;;8.40;3.40;;;32.10;32.90;;;;;;4878311;28;88018;-77
2023/05/30 13:58:10;;;;;;;5.88;3.10;;;31.70;33.30;;;;;;4878519;28;90169;-77
2023/05/30 14:00:36;;;;;;;7.00;2.72;;;31.90;34.80;;;;;;4878179;28;91213;-77
2023/05/30 14:03:03;;;;;;;6.25;2.65;;;32.20;33.60;;;;;;4877774;28;88521;-77
2023/05/30 14:05:29;;;;;;;6.32;2.80;;;32.40;32.60;;;;;;4879122;28;87843;-77
2023/05/30 14:07:54;;;;;;;9.52;3.10;;;32.80;32.30;;;;;;4878586;28;88600;-78
2023/05/30 14:10:20;;;;;;;7.72;2.95;;;33.20;32.90;;;;;;4878612;28;89862;-78
2023/05/30 14:12:49;;;;;;;8.95;3.08;;;33.70;32.80;;;;;;4879048;28;88446;-78
2023/05/30 14:15:15;;;;;;;8.32;3.55;;;34.10;31.50;;;;;;4878604;28;90574;-78
2023/05/30 14:17:42;;;;;;;5.40;3.42;;;34.00;31.30;;;;;;4879052;28;89637;-78
2023/05/30 14:20:08;;;;;;;9.68;3.47;;;33.70;31.10;;;;;;4879155;28;88545;-78
2023/05/30 14:22:35;;;;;;;8.73;3.05;;;33.50;33.60;;;;;;4877260;28;88620;-77
2023/05/30 14:25:01;;;;;;;5.15;2.83;;;33.90;32.60;;;;;;4879827;28;87661;-77
2023/05/30 14:27:26;;;;;;;10.65;2.97;;;34.00;31.70;;;;;;4879242;28;88331;-78
2023/05/30 14:29:52;;;;;;;7.78;2.97;;;33.90;30.50;;;;;;4877512;28;91592;-77
2023/05/30 14:32:18;;;;;;;7.10;2.60;;;33.70;32.00;;;;;;4880437;28;88194;-78
2023/05/30 14:34:43;;;;;;;6.82;2.85;;;33.90;31.70;;;;;;4877336;28;90691;-78
2023/05/30 14:37:09;;;;;;;8.50;2.67;;;34.20;32.20;;;;;;4879716;28;89282;-78
2023/05/30 14:39:35;;;;;;;8.70;2.75;;;34.50;31.80;;;;;;4880182;28;87946;-78
2023/05/30 14:42:00;;;;;;;8.32;2.50;;;34.90;31.90;;;;;;4877835;28;87697;-78
2023/05/30 14:44:26;;;;;;;6.28;2.63;;;35.20;32.90;;;;;;4877407;28;91156;-79
2023/05/30 14:46:52;;;;;;;8.60;2.63;;;35.00;29.90;;;;;;4879069;28;90174;-78
2023/05/30 14:49:21;;;;;;;10.00;3.08;;;34.60;31.30;;;;;;4876727;28;91252;-78
2023/05/30 14:51:46;;;;;;;6.22;2.60;;;34.40;30.40;;;;;;4878570;28;87453;-78
2023/05/30 14:54:12;;;;;;;8.02;2.55;;;34.10;31.50;;;;;;4878956;28;87230;-81
2023/05/30 14:56:39;;;;;;;4.90;2.05;;;34.10;31.30;;;;;;4876250;28;92039;-83
2023/05/30 14:59:05;;;;;;;6.05;2.50;;;34.60;32.40;;;;;;4876774;28;90585;-79
2023/05/30 15:01:31;;;;;;;8.25;2.70;;;34.70;31.30;;;;;;4877657;28;87622;-81
2023/05/30 15:03:56;;;;;;;5.75;2.33;;;34.50;32.00;;;;;;4877987;28;89431;-80
2023/05/30 15:06:22;;;;;;;7.40;2.63;;;34.70;32.20;;;;;;4877682;28;90832;-81
2023/05/30 15:08:48;;;;;;;5.47;2.38;;;35.10;31.50;;;;;;4876396;28;90485;-82
2023/05/30 15:11:13;;;;;;;9.90;2.70;;;35.20;31.60;;;;;;4877647;28;89524;-82
2023/05/30 15:13:40;;;;;;;6.30;2.40;;;35.00;31.70;;;;;;4878375;28;87126;-81
2023/05/30 15:16:05;;;;;;;6.07;2.50;;;35.40;31.60;;;;;;4876506;28;91553;-81
2023/05/30 15:18:31;;;;;;;5.40;2.20;;;35.40;31.30;;;;;;4877017;28;89611;-78
2023/05/30 15:20:57;;;;;;;5.93;2.47;;;35.40;31.00;;;;;;4877881;28;87937;-84
2023/05/30 15:23:22;;;;;;;7.05;2.30;;;35.60;31.80;;;;;;4876051;28;90935;-86
2023/05/30 15:25:48;;;;;;;5.82;2.50;;;35.40;31.60;;;;;;4878288;28;90627;-86
2023/05/30 15:28:14;;;;;;;5.55;2.30;;;35.30;30.50;;;;;;4878876;28;90574;-87
2023/05/30 15:30:39;;;;;;;11.77;2.83;;;35.50;31.30;;;;;;4879301;28;87065;-83
2023/05/30 15:33:05;;;;;;;7.03;2.55;;;35.40;31.70;;;;;;4877172;28;90215;-86
2023/05/30 15:35:31;;;;;;;8.57;2.88;;;35.40;31.30;;;;;;4878541;28;89653;-87
2023/05/30 15:37:56;;;;;;;9.73;2.88;;;35.40;31.80;;;;;;4877493;28;91425;-87
2023/05/30 15:40:23;;;;;;;5.88;2.65;;;35.20;32.00;;;;;;4880628;28;87845;-86
2023/05/30 15:42:48;;;;;;;8.82;2.83;;;35.50;31.90;;;;;;4880595;28;90756;-85
2023/05/30 15:45:14;;;;;;;6.88;2.40;;;35.80;31.50;;;;;;4881127;28;89515;-86
2023/05/30 15:47:40;;;;;;;5.15;2.13;;;35.90;31.60;;;;;;4881483;28;88339;-88
2023/05/30 15:50:09;;;;;;;13.18;3.00;;;36.20;32.40;;;;;;4880280;28;87402;-87
2023/05/30 15:52:34;;;;;;;5.55;2.80;;;36.00;30.90;;;;;;4880804;28;90619;-86
2023/05/30 15:55:00;;;;;;;6.32;2.13;;;35.30;31.70;;;;;;4880321;28;90350;-86
2023/05/30 15:57:26;;;;;;;6.82;2.75;;;35.60;32.30;;;;;;4881259;28;91181;-88
2023/05/30 15:59:52;;;;;;;7.35;2.78;;;35.90;32.00;;;;;;4879852;28;88750;-89
2023/05/30 16:02:18;;;;;;;7.68;2.30;;;35.70;31.50;;;;;;4880442;28;89222;-85
2023/05/30 16:04:43;;;;;;;8.25;2.83;;;35.90;32.10;;;;;;4880963;28;91559;-90
2023/05/30 16:07:10;;;;;;;7.70;3.13;;;35.60;30.80;;;;;;4880465;28;89845;-90
2023/05/30 16:09:38;;;;;;;6.10;2.65;;;34.80;30.70;;;;;;4881550;28;87837;-88
2023/05/30 16:12:06;;;;;;;10.32;2.90;;;34.40;32.70;;;;;;4880971;28;90118;-89
2023/05/30 16:14:38;;;;;;;8.70;2.92;;;34.60;32.20;;;;;;4896420;28;91715;-89
2023/05/30 16:17:03;;;;;;;11.32;3.28;;;34.90;32.10;;;;;;4871151;28;89198;-89